sensor_id;sensor_type;location;lat;lon;timestamp;P1;durP1;ratioP1;P2;durP2;ratioP2
39094;SDS011;24840;47.508;19.376;2023-01-31T00:02:10;4.53;;;2.67;;
39094;SDS011;24840;47.508;19.376;2023-01-31T00:04:36;5.07;;;2.40;;
39094;SDS011;24840;47.508;19.376;2023-01-31T00:07:01;4.40;;;2.23;;
39094;SDS011;24840;47.508;19.376;2023-01-31T00:09:27;4.10;;;2.10;;
39094;SDS011;24840;47.508;19.376;2023-01-31T00:11:53;3.90;;;2.33;;
39094;SDS011;24840;47.508;19.376;2023-01-31T00:14:21;3.93;;;2.03;;
39094;SDS011;24840;47.508;19.376;2023-01-31T00:16:47;3.33;;;2.20;;
39094;SDS011;24840;47.508;19.376;2023-01-31T00:19:13;2.43;;;1.77;;
39094;SDS011;24840;47.508;19.376;2023-01-31T00:21:38;3.80;;;2.07;;
39094;SDS011;24840;47.508;19.376;2023-01-31T00:24:07;3.37;;;2.13;;
39094;SDS011;24840;47.508;19.376;2023-01-31T00:26:35;4.17;;;2.83;;
39094;SDS011;24840;47.508;19.376;2023-01-31T00:29:02;4.27;;;2.13;;
39094;SDS011;24840;47.508;19.376;2023-01-31T00:31:29;3.33;;;2.27;;
39094;SDS011;24840;47.508;19.376;2023-01-31T00:33:57;3.53;;;2.53;;
39094;SDS011;24840;47.508;19.376;2023-01-31T00:36:25;4.47;;;1.80;;
39094;SDS011;24840;47.508;19.376;2023-01-31T00:38:52;5.27;;;2.70;;
39094;SDS011;24840;47.508;19.376;2023-01-31T00:41:20;7.37;;;2.30;;
39094;SDS011;24840;47.508;19.376;2023-01-31T00:43:47;3.13;;;1.83;;
39094;SDS011;24840;47.508;19.376;2023-01-31T00:46:14;3.90;;;2.30;;
39094;SDS011;24840;47.508;19.376;2023-01-31T00:48:40;1.87;;;1.67;;
39094;SDS011;24840;47.508;19.376;2023-01-31T00:51:06;2.43;;;1.73;;
39094;SDS011;24840;47.508;19.376;2023-01-31T00:53:32;2.63;;;1.40;;
39094;SDS011;24840;47.508;19.376;2023-01-31T00:56:03;4.90;;;1.97;;
39094;SDS011;24840;47.508;19.376;2023-01-31T00:58:31;6.83;;;2.70;;
39094;SDS011;24840;47.508;19.376;2023-01-31T01:01:04;3.10;;;1.90;;
39094;SDS011;24840;47.508;19.376;2023-01-31T01:03:33;2.80;;;1.80;;
39094;SDS011;24840;47.508;19.376;2023-01-31T01:06:00;3.63;;;2.27;;
39094;SDS011;24840;47.508;19.376;2023-01-31T01:08:25;6.97;;;2.27;;
39094;SDS011;24840;47.508;19.376;2023-01-31T01:10:52;3.47;;;1.90;;
39094;SDS011;24840;47.508;19.376;2023-01-31T01:13:18;5.37;;;1.60;;
39094;SDS011;24840;47.508;19.376;2023-01-31T01:15:44;5.37;;;2.10;;
39094;SDS011;24840;47.508;19.376;2023-01-31T01:18:10;5.50;;;1.73;;
39094;SDS011;24840;47.508;19.376;2023-01-31T01:20:36;3.73;;;1.77;;
39094;SDS011;24840;47.508;19.376;2023-01-31T01:23:01;3.00;;;1.73;;
39094;SDS011;24840;47.508;19.376;2023-01-31T01:25:27;5.13;;;1.40;;
39094;SDS011;24840;47.508;19.376;2023-01-31T01:28:07;6.30;;;2.17;;
39094;SDS011;24840;47.508;19.376;2023-01-31T01:30:33;5.07;;;1.97;;
39094;SDS011;24840;47.508;19.376;2023-01-31T01:32:58;3.80;;;2.30;;
39094;SDS011;24840;47.508;19.376;2023-01-31T01:35:24;4.23;;;1.87;;
39094;SDS011;24840;47.508;19.376;2023-01-31T01:37:50;3.43;;;1.63;;
39094;SDS011;24840;47.508;19.376;2023-01-31T01:40:16;6.67;;;1.93;;
39094;SDS011;24840;47.508;19.376;2023-01-31T01:42:42;5.20;;;1.30;;
39094;SDS011;24840;47.508;19.376;2023-01-31T01:45:10;3.80;;;1.80;;
39094;SDS011;24840;47.508;19.376;2023-01-31T01:47:47;5.67;;;1.27;;
39094;SDS011;24840;47.508;19.376;2023-01-31T01:50:21;6.93;;;2.13;;
39094;SDS011;24840;47.508;19.376;2023-01-31T01:53:17;2.97;;;1.30;;
39094;SDS011;24840;47.508;19.376;2023-01-31T01:55:41;4.10;;;1.60;;
39094;SDS011;24840;47.508;19.376;2023-01-31T01:58:16;3.30;;;1.87;;
39094;SDS011;24840;47.508;19.376;2023-01-31T02:00:46;7.97;;;1.60;;
39094;SDS011;24840;47.508;19.376;2023-01-31T02:03:14;4.13;;;1.20;;
39094;SDS011;24840;47.508;19.376;2023-01-31T02:05:42;6.37;;;1.73;;
39094;SDS011;24840;47.508;19.376;2023-01-31T02:08:14;4.33;;;1.40;;
39094;SDS011;24840;47.508;19.376;2023-01-31T02:10:47;5.20;;;2.30;;
39094;SDS011;24840;47.508;19.376;2023-01-31T02:13:17;3.60;;;1.40;;
39094;SDS011;24840;47.508;19.376;2023-01-31T02:15:43;4.77;;;1.63;;
39094;SDS011;24840;47.508;19.376;2023-01-31T02:18:10;7.57;;;1.73;;
39094;SDS011;24840;47.508;19.376;2023-01-31T02:23:33;5.93;;;1.20;;
39094;SDS011;24840;47.508;19.376;2023-01-31T02:35:00;7.00;;;1.77;;
39094;SDS011;24840;47.508;19.376;2023-01-31T02:48:50;12.27;;;1.30;;
39094;SDS011;24840;47.508;19.376;2023-01-31T02:51:21;2.67;;;1.00;;
39094;SDS011;24840;47.508;19.376;2023-01-31T02:53:52;3.00;;;1.30;;
39094;SDS011;24840;47.508;19.376;2023-01-31T02:59:07;5.80;;;1.10;;
39094;SDS011;24840;47.508;19.376;2023-01-31T03:01:42;1.90;;;1.00;;
39094;SDS011;24840;47.508;19.376;2023-01-31T03:04:11;5.33;;;1.70;;
39094;SDS011;24840;47.508;19.376;2023-01-31T03:12:12;5.70;;;2.07;;
39094;SDS011;24840;47.508;19.376;2023-01-31T03:20:49;5.93;;;1.67;;
39094;SDS011;24840;47.508;19.376;2023-01-31T03:23:24;4.13;;;1.30;;
39094;SDS011;24840;47.508;19.376;2023-01-31T03:25:55;1.47;;;1.37;;
39094;SDS011;24840;47.508;19.376;2023-01-31T03:28:25;3.87;;;0.80;;
39094;SDS011;24840;47.508;19.376;2023-01-31T03:33:37;8.87;;;1.53;;
39094;SDS011;24840;47.508;19.376;2023-01-31T03:36:09;4.30;;;1.47;;
39094;SDS011;24840;47.508;19.376;2023-01-31T03:38:36;3.40;;;1.40;;
39094;SDS011;24840;47.508;19.376;2023-01-31T03:41:21;5.83;;;1.20;;
39094;SDS011;24840;47.508;19.376;2023-01-31T03:44:02;6.30;;;1.40;;
39094;SDS011;24840;47.508;19.376;2023-01-31T03:46:37;6.70;;;1.47;;
39094;SDS011;24840;47.508;19.376;2023-01-31T03:49:07;2.23;;;0.87;;
39094;SDS011;24840;47.508;19.376;2023-01-31T03:51:38;5.10;;;1.30;;
39094;SDS011;24840;47.508;19.376;2023-01-31T03:54:10;10.65;;;1.75;;
39094;SDS011;24840;47.508;19.376;2023-01-31T03:59:14;5.03;;;0.90;;
39094;SDS011;24840;47.508;19.376;2023-01-31T04:01:47;5.97;;;1.13;;
39094;SDS011;24840;47.508;19.376;2023-01-31T04:06:49;7.70;;;1.57;;
39094;SDS011;24840;47.508;19.376;2023-01-31T04:09:15;4.00;;;1.57;;
39094;SDS011;24840;47.508;19.376;2023-01-31T04:11:41;5.70;;;1.63;;
39094;SDS011;24840;47.508;19.376;2023-01-31T04:14:10;10.03;;;1.43;;
39094;SDS011;24840;47.508;19.376;2023-01-31T04:16:36;5.13;;;1.40;;
39094;SDS011;24840;47.508;19.376;2023-01-31T04:19:02;7.80;;;1.57;;
39094;SDS011;24840;47.508;19.376;2023-01-31T04:21:27;3.80;;;1.00;;
39094;SDS011;24840;47.508;19.376;2023-01-31T04:23:53;7.07;;;1.60;;
39094;SDS011;24840;47.508;19.376;2023-01-31T04:26:19;5.80;;;1.40;;
39094;SDS011;24840;47.508;19.376;2023-01-31T04:28:44;6.07;;;1.50;;
39094;SDS011;24840;47.508;19.376;2023-01-31T04:31:10;4.73;;;1.30;;
39094;SDS011;24840;47.508;19.376;2023-01-31T04:33:36;5.17;;;1.90;;
39094;SDS011;24840;47.508;19.376;2023-01-31T04:36:02;7.20;;;1.10;;
39094;SDS011;24840;47.508;19.376;2023-01-31T04:38:28;4.77;;;1.40;;
39094;SDS011;24840;47.508;19.376;2023-01-31T04:40:53;6.67;;;2.10;;
39094;SDS011;24840;47.508;19.376;2023-01-31T04:43:19;5.40;;;1.50;;
39094;SDS011;24840;47.508;19.376;2023-01-31T04:45:45;7.50;;;1.43;;
39094;SDS011;24840;47.508;19.376;2023-01-31T04:48:10;3.57;;;1.00;;
39094;SDS011;24840;47.508;19.376;2023-01-31T04:50:37;6.83;;;1.73;;
39094;SDS011;24840;47.508;19.376;2023-01-31T04:53:03;5.27;;;1.63;;
39094;SDS011;24840;47.508;19.376;2023-01-31T04:55:29;8.90;;;1.67;;
39094;SDS011;24840;47.508;19.376;2023-01-31T04:57:54;8.13;;;1.80;;
39094;SDS011;24840;47.508;19.376;2023-01-31T05:00:20;5.33;;;1.33;;
39094;SDS011;24840;47.508;19.376;2023-01-31T05:02:46;7.40;;;1.40;;
39094;SDS011;24840;47.508;19.376;2023-01-31T05:05:12;4.90;;;1.43;;
39094;SDS011;24840;47.508;19.376;2023-01-31T05:07:38;4.77;;;1.33;;
39094;SDS011;24840;47.508;19.376;2023-01-31T05:10:04;5.20;;;1.07;;
39094;SDS011;24840;47.508;19.376;2023-01-31T05:12:31;7.70;;;1.70;;
39094;SDS011;24840;47.508;19.376;2023-01-31T05:14:57;3.73;;;1.23;;
39094;SDS011;24840;47.508;19.376;2023-01-31T05:17:22;3.67;;;1.23;;
39094;SDS011;24840;47.508;19.376;2023-01-31T05:19:54;6.27;;;1.50;;
39094;SDS011;24840;47.508;19.376;2023-01-31T05:22:20;4.47;;;1.53;;
39094;SDS011;24840;47.508;19.376;2023-01-31T05:24:47;3.70;;;1.07;;
39094;SDS011;24840;47.508;19.376;2023-01-31T05:27:13;5.27;;;1.40;;
39094;SDS011;24840;47.508;19.376;2023-01-31T05:29:39;3.43;;;1.07;;
39094;SDS011;24840;47.508;19.376;2023-01-31T05:32:05;6.60;;;1.50;;
39094;SDS011;24840;47.508;19.376;2023-01-31T05:34:31;2.50;;;0.87;;
39094;SDS011;24840;47.508;19.376;2023-01-31T05:36:58;5.53;;;0.90;;
39094;SDS011;24840;47.508;19.376;2023-01-31T05:39:24;3.63;;;1.00;;
39094;SDS011;24840;47.508;19.376;2023-01-31T05:41:50;2.93;;;0.83;;
39094;SDS011;24840;47.508;19.376;2023-01-31T05:44:16;4.57;;;1.10;;
39094;SDS011;24840;47.508;19.376;2023-01-31T05:46:43;2.63;;;0.70;;
39094;SDS011;24840;47.508;19.376;2023-01-31T05:49:09;2.47;;;0.70;;
39094;SDS011;24840;47.508;19.376;2023-01-31T05:51:35;3.20;;;1.33;;
39094;SDS011;24840;47.508;19.376;2023-01-31T05:54:00;3.67;;;1.03;;
39094;SDS011;24840;47.508;19.376;2023-01-31T05:56:26;1.50;;;0.83;;
39094;SDS011;24840;47.508;19.376;2023-01-31T05:58:52;4.63;;;1.03;;
39094;SDS011;24840;47.508;19.376;2023-01-31T06:01:18;7.77;;;0.87;;
39094;SDS011;24840;47.508;19.376;2023-01-31T06:03:45;2.30;;;1.13;;
39094;SDS011;24840;47.508;19.376;2023-01-31T06:06:11;2.83;;;0.83;;
39094;SDS011;24840;47.508;19.376;2023-01-31T06:08:38;3.90;;;0.80;;
39094;SDS011;24840;47.508;19.376;2023-01-31T06:11:05;2.23;;;0.67;;
39094;SDS011;24840;47.508;19.376;2023-01-31T06:13:32;2.87;;;0.73;;
39094;SDS011;24840;47.508;19.376;2023-01-31T06:15:58;3.60;;;0.67;;
39094;SDS011;24840;47.508;19.376;2023-01-31T06:18:24;4.30;;;1.00;;
39094;SDS011;24840;47.508;19.376;2023-01-31T06:20:51;3.90;;;1.33;;
39094;SDS011;24840;47.508;19.376;2023-01-31T06:23:17;5.63;;;1.50;;
39094;SDS011;24840;47.508;19.376;2023-01-31T06:25:47;4.43;;;1.23;;
39094;SDS011;24840;47.508;19.376;2023-01-31T06:28:17;4.30;;;0.87;;
39094;SDS011;24840;47.508;19.376;2023-01-31T06:30:43;5.23;;;1.00;;
39094;SDS011;24840;47.508;19.376;2023-01-31T06:33:09;4.40;;;1.23;;
39094;SDS011;24840;47.508;19.376;2023-01-31T06:35:37;3.10;;;0.90;;
39094;SDS011;24840;47.508;19.376;2023-01-31T06:38:03;6.47;;;1.47;;
39094;SDS011;24840;47.508;19.376;2023-01-31T06:40:29;6.63;;;1.30;;
39094;SDS011;24840;47.508;19.376;2023-01-31T06:42:55;4.23;;;1.23;;
39094;SDS011;24840;47.508;19.376;2023-01-31T06:45:23;4.17;;;1.40;;
39094;SDS011;24840;47.508;19.376;2023-01-31T06:47:49;8.00;;;2.13;;
39094;SDS011;24840;47.508;19.376;2023-01-31T06:50:17;4.97;;;1.30;;
39094;SDS011;24840;47.508;19.376;2023-01-31T06:52:42;4.30;;;1.43;;
39094;SDS011;24840;47.508;19.376;2023-01-31T06:55:08;4.07;;;1.53;;
39094;SDS011;24840;47.508;19.376;2023-01-31T06:57:35;3.83;;;0.93;;
39094;SDS011;24840;47.508;19.376;2023-01-31T07:00:01;6.73;;;1.40;;
39094;SDS011;24840;47.508;19.376;2023-01-31T07:02:28;4.33;;;1.57;;
39094;SDS011;24840;47.508;19.376;2023-01-31T07:04:54;3.67;;;1.20;;
39094;SDS011;24840;47.508;19.376;2023-01-31T07:07:20;2.83;;;1.53;;
39094;SDS011;24840;47.508;19.376;2023-01-31T07:09:45;3.97;;;1.43;;
39094;SDS011;24840;47.508;19.376;2023-01-31T07:12:11;4.80;;;1.00;;
39094;SDS011;24840;47.508;19.376;2023-01-31T07:14:37;7.20;;;1.77;;
39094;SDS011;24840;47.508;19.376;2023-01-31T07:17:02;3.00;;;1.40;;
39094;SDS011;24840;47.508;19.376;2023-01-31T07:19:28;3.33;;;0.93;;
39094;SDS011;24840;47.508;19.376;2023-01-31T07:21:54;6.27;;;1.77;;
39094;SDS011;24840;47.508;19.376;2023-01-31T07:24:20;3.03;;;1.17;;
39094;SDS011;24840;47.508;19.376;2023-01-31T07:26:45;6.60;;;2.03;;
39094;SDS011;24840;47.508;19.376;2023-01-31T07:29:11;6.77;;;1.87;;
39094;SDS011;24840;47.508;19.376;2023-01-31T07:31:37;3.97;;;1.03;;
39094;SDS011;24840;47.508;19.376;2023-01-31T07:34:03;2.67;;;1.07;;
39094;SDS011;24840;47.508;19.376;2023-01-31T07:36:29;6.77;;;1.43;;
39094;SDS011;24840;47.508;19.376;2023-01-31T07:38:56;9.27;;;1.93;;
39094;SDS011;24840;47.508;19.376;2023-01-31T07:41:28;4.83;;;1.57;;
39094;SDS011;24840;47.508;19.376;2023-01-31T07:43:54;9.88;;;1.55;;
39094;SDS011;24840;47.508;19.376;2023-01-31T07:46:20;7.03;;;2.50;;
39094;SDS011;24840;47.508;19.376;2023-01-31T07:48:45;4.63;;;1.30;;
39094;SDS011;24840;47.508;19.376;2023-01-31T07:51:11;1.60;;;1.17;;
39094;SDS011;24840;47.508;19.376;2023-01-31T07:53:39;7.67;;;0.70;;
39094;SDS011;24840;47.508;19.376;2023-01-31T07:56:18;3.80;;;1.23;;
39094;SDS011;24840;47.508;19.376;2023-01-31T07:58:45;4.50;;;1.00;;
39094;SDS011;24840;47.508;19.376;2023-01-31T08:01:24;5.00;;;1.37;;
39094;SDS011;24840;47.508;19.376;2023-01-31T08:04:10;6.93;;;1.63;;
39094;SDS011;24840;47.508;19.376;2023-01-31T08:06:39;3.00;;;0.73;;
39094;SDS011;24840;47.508;19.376;2023-01-31T08:09:05;7.37;;;1.27;;
39094;SDS011;24840;47.508;19.376;2023-01-31T08:11:31;4.73;;;1.00;;
39094;SDS011;24840;47.508;19.376;2023-01-31T08:13:56;3.70;;;1.27;;
39094;SDS011;24840;47.508;19.376;2023-01-31T08:16:22;2.70;;;0.87;;
39094;SDS011;24840;47.508;19.376;2023-01-31T08:18:48;3.43;;;1.40;;
39094;SDS011;24840;47.508;19.376;2023-01-31T08:21:15;5.50;;;0.97;;
39094;SDS011;24840;47.508;19.376;2023-01-31T08:23:41;7.57;;;1.10;;
39094;SDS011;24840;47.508;19.376;2023-01-31T08:26:08;4.67;;;0.83;;
39094;SDS011;24840;47.508;19.376;2023-01-31T08:28:39;2.47;;;0.77;;
39094;SDS011;24840;47.508;19.376;2023-01-31T08:31:06;3.67;;;0.63;;
39094;SDS011;24840;47.508;19.376;2023-01-31T08:33:36;2.60;;;0.83;;
39094;SDS011;24840;47.508;19.376;2023-01-31T08:36:13;7.17;;;2.07;;
39094;SDS011;24840;47.508;19.376;2023-01-31T08:38:45;6.13;;;1.40;;
39094;SDS011;24840;47.508;19.376;2023-01-31T08:41:12;5.63;;;1.07;;
39094;SDS011;24840;47.508;19.376;2023-01-31T08:43:39;3.87;;;0.87;;
39094;SDS011;24840;47.508;19.376;2023-01-31T08:46:05;5.37;;;1.33;;
39094;SDS011;24840;47.508;19.376;2023-01-31T08:48:31;5.30;;;0.90;;
39094;SDS011;24840;47.508;19.376;2023-01-31T08:51:01;5.87;;;1.00;;
39094;SDS011;24840;47.508;19.376;2023-01-31T08:53:28;6.40;;;1.10;;
39094;SDS011;24840;47.508;19.376;2023-01-31T08:55:58;2.87;;;0.97;;
39094;SDS011;24840;47.508;19.376;2023-01-31T08:58:25;6.70;;;1.53;;
39094;SDS011;24840;47.508;19.376;2023-01-31T09:00:51;6.00;;;1.53;;
39094;SDS011;24840;47.508;19.376;2023-01-31T09:03:17;5.50;;;1.20;;
39094;SDS011;24840;47.508;19.376;2023-01-31T09:05:43;5.70;;;1.10;;
39094;SDS011;24840;47.508;19.376;2023-01-31T09:08:09;3.43;;;1.47;;
39094;SDS011;24840;47.508;19.376;2023-01-31T09:10:35;4.00;;;1.53;;
39094;SDS011;24840;47.508;19.376;2023-01-31T09:13:01;5.73;;;1.80;;
39094;SDS011;24840;47.508;19.376;2023-01-31T09:15:27;4.73;;;0.90;;
39094;SDS011;24840;47.508;19.376;2023-01-31T09:17:53;6.13;;;1.43;;
39094;SDS011;24840;47.508;19.376;2023-01-31T09:20:18;3.17;;;0.90;;
39094;SDS011;24840;47.508;19.376;2023-01-31T09:22:45;4.87;;;1.50;;
39094;SDS011;24840;47.508;19.376;2023-01-31T09:25:11;7.83;;;1.47;;
39094;SDS011;24840;47.508;19.376;2023-01-31T09:27:37;3.83;;;0.80;;
39094;SDS011;24840;47.508;19.376;2023-01-31T09:30:07;7.53;;;0.73;;
39094;SDS011;24840;47.508;19.376;2023-01-31T09:32:34;4.80;;;1.40;;
39094;SDS011;24840;47.508;19.376;2023-01-31T09:35:01;10.87;;;1.30;;
39094;SDS011;24840;47.508;19.376;2023-01-31T09:37:28;5.57;;;1.30;;
39094;SDS011;24840;47.508;19.376;2023-01-31T09:39:55;3.33;;;0.90;;
39094;SDS011;24840;47.508;19.376;2023-01-31T09:42:22;5.77;;;0.93;;
39094;SDS011;24840;47.508;19.376;2023-01-31T09:45:14;4.57;;;1.07;;
39094;SDS011;24840;47.508;19.376;2023-01-31T09:47:48;3.53;;;1.20;;
39094;SDS011;24840;47.508;19.376;2023-01-31T09:50:20;5.23;;;1.03;;
39094;SDS011;24840;47.508;19.376;2023-01-31T09:53:12;5.47;;;1.20;;
39094;SDS011;24840;47.508;19.376;2023-01-31T10:06:24;3.83;;;1.20;;
39094;SDS011;24840;47.508;19.376;2023-01-31T10:09:35;2.78;;;0.98;;
39094;SDS011;24840;47.508;19.376;2023-01-31T10:14:47;4.97;;;1.27;;
39094;SDS011;24840;47.508;19.376;2023-01-31T10:17:18;2.28;;;0.52;;
39094;SDS011;24840;47.508;19.376;2023-01-31T10:20:06;2.63;;;0.80;;
39094;SDS011;24840;47.508;19.376;2023-01-31T10:22:45;4.47;;;1.10;;
39094;SDS011;24840;47.508;19.376;2023-01-31T10:25:32;3.97;;;0.98;;
39094;SDS011;24840;47.508;19.376;2023-01-31T10:30:56;5.20;;;0.90;;
39094;SDS011;24840;47.508;19.376;2023-01-31T10:36:31;7.25;;;1.75;;
39094;SDS011;24840;47.508;19.376;2023-01-31T10:44:20;7.38;;;1.55;;
39094;SDS011;24840;47.508;19.376;2023-01-31T10:46:51;3.30;;;1.02;;
39094;SDS011;24840;47.508;19.376;2023-01-31T10:49:22;6.25;;;1.27;;
39094;SDS011;24840;47.508;19.376;2023-01-31T10:51:55;8.95;;;1.60;;
39094;SDS011;24840;47.508;19.376;2023-01-31T10:57:27;7.15;;;1.10;;
39094;SDS011;24840;47.508;19.376;2023-01-31T10:59:53;4.07;;;0.70;;
39094;SDS011;24840;47.508;19.376;2023-01-31T11:02:20;3.25;;;1.02;;
39094;SDS011;24840;47.508;19.376;2023-01-31T11:04:52;4.10;;;0.80;;
39094;SDS011;24840;47.508;19.376;2023-01-31T11:07:19;1.67;;;0.68;;
39094;SDS011;24840;47.508;19.376;2023-01-31T11:09:50;3.45;;;1.13;;
39094;SDS011;24840;47.508;19.376;2023-01-31T11:12:18;1.70;;;0.77;;
39094;SDS011;24840;47.508;19.376;2023-01-31T11:15:02;4.47;;;1.10;;
39094;SDS011;24840;47.508;19.376;2023-01-31T11:17:30;5.07;;;0.73;;
39094;SDS011;24840;47.508;19.376;2023-01-31T11:20:00;7.15;;;1.05;;
39094;SDS011;24840;47.508;19.376;2023-01-31T11:22:30;4.65;;;1.63;;
39094;SDS011;24840;47.508;19.376;2023-01-31T11:24:58;4.20;;;1.08;;
39094;SDS011;24840;47.508;19.376;2023-01-31T11:27:30;5.60;;;1.15;;
39094;SDS011;24840;47.508;19.376;2023-01-31T11:30:02;4.35;;;1.00;;
39094;SDS011;24840;47.508;19.376;2023-01-31T11:32:30;3.22;;;1.30;;
39094;SDS011;24840;47.508;19.376;2023-01-31T11:35:33;4.50;;;1.48;;
39094;SDS011;24840;47.508;19.376;2023-01-31T11:37:58;3.45;;;0.95;;
39094;SDS011;24840;47.508;19.376;2023-01-31T11:40:34;4.32;;;1.65;;
39094;SDS011;24840;47.508;19.376;2023-01-31T11:43:02;3.92;;;1.40;;
39094;SDS011;24840;47.508;19.376;2023-01-31T11:45:30;4.93;;;1.23;;
39094;SDS011;24840;47.508;19.376;2023-01-31T11:47:58;6.40;;;1.58;;
39094;SDS011;24840;47.508;19.376;2023-01-31T11:50:44;3.38;;;1.33;;
39094;SDS011;24840;47.508;19.376;2023-01-31T11:53:58;3.28;;;1.30;;
39094;SDS011;24840;47.508;19.376;2023-01-31T11:56:25;6.57;;;1.23;;
39094;SDS011;24840;47.508;19.376;2023-01-31T11:58:53;5.37;;;1.63;;
39094;SDS011;24840;47.508;19.376;2023-01-31T12:01:23;5.10;;;1.48;;
39094;SDS011;24840;47.508;19.376;2023-01-31T12:03:54;4.53;;;1.20;;
39094;SDS011;24840;47.508;19.376;2023-01-31T12:06:30;3.03;;;1.05;;
39094;SDS011;24840;47.508;19.376;2023-01-31T12:08:57;1.52;;;0.98;;
39094;SDS011;24840;47.508;19.376;2023-01-31T12:13:59;3.25;;;0.80;;
39094;SDS011;24840;47.508;19.376;2023-01-31T12:16:27;3.92;;;1.00;;
39094;SDS011;24840;47.508;19.376;2023-01-31T12:26:58;5.22;;;1.10;;
39094;SDS011;24840;47.508;19.376;2023-01-31T12:35:26;5.25;;;1.00;;
39094;SDS011;24840;47.508;19.376;2023-01-31T12:38:22;10.63;;;2.30;;
39094;SDS011;24840;47.508;19.376;2023-01-31T13:05:26;2.73;;;0.97;;
39094;SDS011;24840;47.508;19.376;2023-01-31T13:10:50;3.20;;;0.80;;
39094;SDS011;24840;47.508;19.376;2023-01-31T13:15:57;6.15;;;1.40;;
39094;SDS011;24840;47.508;19.376;2023-01-31T13:18:37;3.80;;;1.63;;
39094;SDS011;24840;47.508;19.376;2023-01-31T13:21:09;3.08;;;1.30;;
39094;SDS011;24840;47.508;19.376;2023-01-31T13:23:49;3.05;;;0.82;;
39094;SDS011;24840;47.508;19.376;2023-01-31T13:26:30;9.07;;;1.42;;
39094;SDS011;24840;47.508;19.376;2023-01-31T13:29:15;5.45;;;1.77;;
39094;SDS011;24840;47.508;19.376;2023-01-31T13:31:49;3.97;;;1.00;;
39094;SDS011;24840;47.508;19.376;2023-01-31T13:34:28;1.35;;;0.63;;
39094;SDS011;24840;47.508;19.376;2023-01-31T13:37:01;4.80;;;1.23;;
39094;SDS011;24840;47.508;19.376;2023-01-31T13:39:36;5.95;;;1.35;;
39094;SDS011;24840;47.508;19.376;2023-01-31T13:42:04;4.13;;;1.33;;
39094;SDS011;24840;47.508;19.376;2023-01-31T13:44:30;3.03;;;0.63;;
39094;SDS011;24840;47.508;19.376;2023-01-31T13:47:02;4.05;;;0.90;;
39094;SDS011;24840;47.508;19.376;2023-01-31T13:50:02;3.20;;;1.58;;
39094;SDS011;24840;47.508;19.376;2023-01-31T13:52:38;3.13;;;0.95;;
39094;SDS011;24840;47.508;19.376;2023-01-31T13:55:18;4.28;;;1.10;;
39094;SDS011;24840;47.508;19.376;2023-01-31T13:58:02;3.05;;;0.68;;
39094;SDS011;24840;47.508;19.376;2023-01-31T14:00:44;4.63;;;1.42;;
39094;SDS011;24840;47.508;19.376;2023-01-31T14:03:16;4.20;;;0.82;;
39094;SDS011;24840;47.508;19.376;2023-01-31T14:13:46;3.97;;;1.00;;
39094;SDS011;24840;47.508;19.376;2023-01-31T14:24:20;3.08;;;0.75;;
39094;SDS011;24840;47.508;19.376;2023-01-31T14:27:12;3.33;;;1.58;;
39094;SDS011;24840;47.508;19.376;2023-01-31T14:29:43;2.70;;;0.73;;
39094;SDS011;24840;47.508;19.376;2023-01-31T14:34:55;4.85;;;0.93;;
39094;SDS011;24840;47.508;19.376;2023-01-31T14:59:18;5.97;;;1.33;;
39094;SDS011;24840;47.508;19.376;2023-01-31T15:01:51;3.17;;;1.70;;
39094;SDS011;24840;47.508;19.376;2023-01-31T15:04:18;8.05;;;1.55;;
39094;SDS011;24840;47.508;19.376;2023-01-31T15:06:47;4.00;;;1.10;;
39094;SDS011;24840;47.508;19.376;2023-01-31T15:11:55;8.13;;;1.10;;
39094;SDS011;24840;47.508;19.376;2023-01-31T15:14:37;9.03;;;3.80;;
39094;SDS011;24840;47.508;19.376;2023-01-31T15:17:16;12.33;;;5.93;;
39094;SDS011;24840;47.508;19.376;2023-01-31T15:19:49;5.07;;;2.97;;
39094;SDS011;24840;47.508;19.376;2023-01-31T15:22:37;7.23;;;1.53;;
39094;SDS011;24840;47.508;19.376;2023-01-31T15:25:07;2.67;;;1.20;;
39094;SDS011;24840;47.508;19.376;2023-01-31T15:27:46;2.97;;;1.07;;
39094;SDS011;24840;47.508;19.376;2023-01-31T15:30:16;4.97;;;1.60;;
39094;SDS011;24840;47.508;19.376;2023-01-31T15:33:01;13.18;;;1.55;;
39094;SDS011;24840;47.508;19.376;2023-01-31T15:35:47;3.40;;;1.23;;
39094;SDS011;24840;47.508;19.376;2023-01-31T15:41:20;3.03;;;1.73;;
39094;SDS011;24840;47.508;19.376;2023-01-31T15:43:50;2.73;;;1.53;;
39094;SDS011;24840;47.508;19.376;2023-01-31T15:46:30;2.92;;;0.98;;
39094;SDS011;24840;47.508;19.376;2023-01-31T15:48:57;5.33;;;1.37;;
39094;SDS011;24840;47.508;19.376;2023-01-31T15:51:24;2.97;;;1.27;;
39094;SDS011;24840;47.508;19.376;2023-01-31T15:54:01;3.47;;;1.23;;
39094;SDS011;24840;47.508;19.376;2023-01-31T15:56:30;5.80;;;1.17;;
39094;SDS011;24840;47.508;19.376;2023-01-31T15:58:57;4.20;;;1.63;;
39094;SDS011;24840;47.508;19.376;2023-01-31T16:01:24;10.67;;;5.00;;
39094;SDS011;24840;47.508;19.376;2023-01-31T16:03:55;3.83;;;1.70;;
39094;SDS011;24840;47.508;19.376;2023-01-31T16:06:30;7.03;;;2.03;;
39094;SDS011;24840;47.508;19.376;2023-01-31T16:08:59;6.37;;;1.57;;
39094;SDS011;24840;47.508;19.376;2023-01-31T16:11:25;3.50;;;1.50;;
39094;SDS011;24840;47.508;19.376;2023-01-31T16:13:55;7.07;;;1.57;;
39094;SDS011;24840;47.508;19.376;2023-01-31T16:16:22;5.60;;;1.97;;
39094;SDS011;24840;47.508;19.376;2023-01-31T16:18:53;5.90;;;2.07;;
39094;SDS011;24840;47.508;19.376;2023-01-31T16:21:26;5.50;;;1.95;;
39094;SDS011;24840;47.508;19.376;2023-01-31T16:24:01;9.93;;;2.53;;
39094;SDS011;24840;47.508;19.376;2023-01-31T16:26:52;7.20;;;1.87;;
39094;SDS011;24840;47.508;19.376;2023-01-31T16:29:22;10.60;;;1.90;;
39094;SDS011;24840;47.508;19.376;2023-01-31T16:31:55;6.47;;;1.83;;
39094;SDS011;24840;47.508;19.376;2023-01-31T16:34:31;8.67;;;2.00;;
39094;SDS011;24840;47.508;19.376;2023-01-31T16:37:01;4.97;;;1.70;;
39094;SDS011;24840;47.508;19.376;2023-01-31T16:41:59;6.70;;;2.20;;
39094;SDS011;24840;47.508;19.376;2023-01-31T16:44:48;5.07;;;2.23;;
39094;SDS011;24840;47.508;19.376;2023-01-31T16:52:44;8.73;;;2.23;;
39094;SDS011;24840;47.508;19.376;2023-01-31T16:55:29;2.90;;;1.47;;
39094;SDS011;24840;47.508;19.376;2023-01-31T16:57:54;6.57;;;2.93;;
39094;SDS011;24840;47.508;19.376;2023-01-31T17:02:53;9.37;;;2.70;;
39094;SDS011;24840;47.508;19.376;2023-01-31T17:07:53;7.97;;;2.73;;
39094;SDS011;24840;47.508;19.376;2023-01-31T17:10:22;5.83;;;2.97;;
39094;SDS011;24840;47.508;19.376;2023-01-31T17:12:52;6.13;;;3.13;;
39094;SDS011;24840;47.508;19.376;2023-01-31T17:15:23;7.93;;;3.37;;
39094;SDS011;24840;47.508;19.376;2023-01-31T17:17:50;8.17;;;3.50;;
39094;SDS011;24840;47.508;19.376;2023-01-31T17:20:17;8.87;;;3.77;;
39094;SDS011;24840;47.508;19.376;2023-01-31T17:22:44;9.77;;;3.50;;
39094;SDS011;24840;47.508;19.376;2023-01-31T17:25:24;10.20;;;3.33;;
39094;SDS011;24840;47.508;19.376;2023-01-31T17:27:55;7.10;;;3.27;;
39094;SDS011;24840;47.508;19.376;2023-01-31T17:30:20;13.60;;;4.20;;
39094;SDS011;24840;47.508;19.376;2023-01-31T17:32:46;12.43;;;3.87;;
39094;SDS011;24840;47.508;19.376;2023-01-31T17:37:58;8.30;;;3.53;;
39094;SDS011;24840;47.508;19.376;2023-01-31T17:40:24;8.87;;;3.87;;
39094;SDS011;24840;47.508;19.376;2023-01-31T17:42:53;9.70;;;4.00;;
39094;SDS011;24840;47.508;19.376;2023-01-31T17:45:22;9.83;;;4.40;;
39094;SDS011;24840;47.508;19.376;2023-01-31T17:50:42;12.63;;;4.80;;
39094;SDS011;24840;47.508;19.376;2023-01-31T17:53:52;14.57;;;5.90;;
39094;SDS011;24840;47.508;19.376;2023-01-31T17:59:31;8.20;;;4.20;;